Time;durP1;ratioP1;P1;durP2;ratioP2;P2;SDS_P1;SDS_P2;PMS_P1;PMS_P2;Temp;Humidity;BMP_temperature;BMP_pressure;BME280_temperature;BME280_humidity;BME280_pressure;Samples;Min_cycle;Max_cycle;Signal;HPM_P1;HPM_P2
2023/01/18 07:06:19;;;;;;;19.75;16.23;;;;;;;-145.79;69.74;77809.69;5321560;27;20331;-77
2023/01/18 07:08:51;;;;;;;17.00;14.65;;;;;;;-145.79;69.85;77813.94;5283386;28;20117;-79
2023/01/18 07:11:22;;;;;;;16.65;14.25;;;;;;;-145.79;69.65;77822.41;5279020;28;20094;-77
2023/01/18 07:13:54;;;;;;;19.30;14.57;;;;;;;-145.79;70.24;77818.19;5293786;28;20111;-77
2023/01/18 07:16:27;;;;;;;15.77;14.07;;;;;;;-145.79;69.90;77824.53;5277711;28;20025;-78
2023/01/18 07:19:00;;;;;;;16.98;14.18;;;;;;;-145.79;70.14;77813.94;5288389;28;20028;-78
2023/01/18 07:21:31;;;;;;;20.98;14.10;;;;;;;-145.79;69.59;77809.69;5297567;28;20086;-76
2023/01/18 07:24:03;;;;;;;18.52;14.55;;;;;;;-145.79;69.50;77813.94;5295637;28;20476;-75
2023/01/18 07:26:34;;;;;;;17.33;14.50;;;;;;;-145.79;69.55;77818.19;5300006;28;20028;-77
2023/01/18 07:29:06;;;;;;;17.80;14.68;;;;;;;-145.79;69.52;77822.41;5278308;28;20040;-77
2023/01/18 07:31:37;;;;;;;16.65;13.18;;;;;;;-145.79;69.59;77818.19;5278379;28;20028;-78
2023/01/18 07:34:09;;;;;;;16.20;13.50;;;;;;;-145.79;69.20;77830.91;5297552;28;20539;-78
2023/01/18 07:36:40;;;;;;;16.45;13.93;;;;;;;-145.79;69.48;77818.19;5293801;28;20084;-77
2023/01/18 07:39:12;;;;;;;20.38;13.85;;;;;;;-145.79;69.66;77818.19;5300119;28;20028;-78
2023/01/18 07:41:43;;;;;;;19.38;14.05;;;;;;;-145.79;69.51;77822.41;5298085;28;20025;-78
2023/01/18 07:44:14;;;;;;;17.17;13.18;;;;;;;-145.79;69.52;77824.53;5282885;28;20050;-77
2023/01/18 07:46:46;;;;;;;17.88;13.07;;;;;;;-145.79;69.42;77830.91;5293135;28;20035;-78
2023/01/18 07:49:17;;;;;;;18.60;13.70;;;;;;;-145.79;69.33;77833.03;5296413;28;20146;-78
2023/01/18 07:51:48;;;;;;;20.17;13.95;;;;;;;-145.79;69.67;77835.13;5278455;28;20386;-79
2023/01/18 07:54:20;;;;;;;18.70;12.82;;;;;;;-145.79;69.36;77839.38;5278710;28;20028;-78
2023/01/18 07:56:52;;;;;;;19.42;14.73;;;;;;;-145.79;69.79;77839.38;5278069;28;20115;-78
2023/01/18 07:59:23;;;;;;;16.38;13.85;;;;;;;-145.79;69.59;77835.13;5289609;28;20020;-78
2023/01/18 08:01:55;;;;;;;18.17;13.48;;;;;;;-145.79;70.06;77835.13;5299038;28;20413;-79
2023/01/18 08:04:26;;;;;;;19.20;13.95;;;;;;;-145.79;69.93;77828.78;5287037;28;20040;-78
2023/01/18 08:06:58;;;;;;;19.00;12.43;;;;;;;-145.79;69.23;77835.13;5298368;28;20039;-78
2023/01/18 08:09:29;;;;;;;17.20;12.32;;;;;;;-145.79;69.23;77837.25;5299274;28;20073;-78
2023/01/18 08:12:01;;;;;;;18.58;13.52;;;;;;;-145.79;69.77;77826.66;5297997;28;20463;-79
2023/01/18 08:14:32;;;;;;;21.08;14.68;;;;;;;-145.79;69.09;77835.13;5318734;28;20125;-78
2023/01/18 08:17:05;;;;;;;18.15;12.80;;;;;;;-145.79;70.92;77822.41;5290637;28;20036;-72
2023/01/18 08:19:37;;;;;;;16.67;13.63;;;;;;;-145.79;69.85;77822.41;5285179;28;20024;-76
2023/01/18 08:22:08;;;;;;;15.65;12.65;;;;;;;-145.79;69.03;77822.41;5284526;28;20111;-76
2023/01/18 08:24:40;;;;;;;20.38;13.82;;;;;;;-145.79;69.31;77813.94;5283450;28;20107;-74
2023/01/18 08:27:11;;;;;;;15.88;13.32;;;;;;;-145.79;68.97;77816.06;5288023;28;20387;-76
2023/01/18 08:29:44;;;;;;;17.95;13.35;;;;;;;-145.79;68.96;77809.69;5284175;28;20079;-74
2023/01/18 08:32:16;;;;;;;15.63;12.48;;;;;;;-145.79;69.57;77805.47;5285807;28;20032;-74
2023/01/18 08:34:47;;;;;;;15.68;12.80;;;;;;;-145.79;68.76;77801.22;5289902;28;20031;-75
2023/01/18 08:37:18;;;;;;;15.45;12.30;;;;;;;-145.79;68.50;77803.34;5283970;28;20036;-75
2023/01/18 08:39:50;;;;;;;15.70;13.45;;;;;;;-145.79;68.77;77794.88;5286267;28;20024;-75
2023/01/18 08:42:21;;;;;;;17.60;13.07;;;;;;;-145.79;68.63;77805.47;5283837;28;20021;-76
2023/01/18 08:44:52;;;;;;;15.65;12.70;;;;;;;-145.79;68.41;77801.22;5284109;28;20130;-76
2023/01/18 08:47:23;;;;;;;22.85;13.90;;;;;;;-145.79;68.44;77828.78;5295000;28;20036;-76
2023/01/18 08:49:55;;;;;;;14.38;11.80;;;;;;;-145.79;69.06;77830.91;5284350;28;20035;-75
2023/01/18 08:52:26;;;;;;;14.25;12.13;;;;;;;-145.79;68.51;77830.91;5283265;28;20043;-75
2023/01/18 08:54:58;;;;;;;18.60;12.90;;;;;;;-145.79;68.49;77839.38;5284345;28;20033;-74
2023/01/18 08:57:29;;;;;;;17.15;12.63;;;;;;;-145.79;68.96;77818.19;5282725;28;20033;-74
2023/01/18 09:00:03;;;;;;;17.33;13.25;;;;;;;-145.79;68.71;77828.78;5298808;28;20408;-74
2023/01/18 09:02:34;;;;;;;16.83;12.30;;;;;;;-145.79;68.71;77818.19;5304601;28;20016;-75
2023/01/18 09:05:06;;;;;;;14.05;11.77;;;;;;;-145.79;68.58;77813.94;5295984;28;20049;-75
2023/01/18 09:07:37;;;;;;;20.05;12.65;;;;;;;-145.79;68.56;77809.69;5297031;28;20031;-75
2023/01/18 09:10:09;;;;;;;16.75;12.25;;;;;;;-145.79;68.58;77809.69;5292617;28;20040;-74
2023/01/18 09:12:41;;;;;;;17.23;13.50;;;;;;;-145.79;68.74;77816.06;5302227;28;20021;-72
2023/01/18 09:15:12;;;;;;;12.70;11.35;;;;;;;-145.79;68.79;77809.69;5301475;28;20060;-73
2023/01/18 09:17:44;;;;;;;16.27;11.75;;;;;;;-145.79;68.85;77805.47;5283075;28;20029;-75
2023/01/18 09:20:16;;;;;;;17.15;12.23;;;;;;;-145.79;68.87;77811.81;5283202;28;20032;-74
2023/01/18 09:22:48;;;;;;;15.70;11.80;;;;;;;-145.79;68.65;77803.34;5283601;28;20028;-74
2023/01/18 09:25:19;;;;;;;13.23;11.02;;;;;;;-145.79;68.76;77803.34;5301208;28;20714;-70
2023/01/18 09:27:51;;;;;;;13.48;10.90;;;;;;;-145.79;68.61;77799.09;5301917;28;20031;-71
2023/01/18 09:30:22;;;;;;;12.77;11.48;;;;;;;-145.79;69.16;77786.38;5303987;28;20035;-73
2023/01/18 09:32:55;;;;;;;14.38;10.77;;;;;;;-145.79;68.56;77786.38;5285167;28;20156;-72
2023/01/18 09:35:27;;;;;;;15.25;11.57;;;;;;;-145.79;67.73;77788.50;5285581;28;20490;-71
2023/01/18 09:37:58;;;;;;;14.13;10.30;;;;;;;-145.79;68.35;77780.03;5294931;28;20024;-70
2023/01/18 09:40:42;;;;;;;14.70;10.55;;;;;;;-145.79;68.44;77788.50;5288681;28;20024;-74
2023/01/18 09:43:23;;;;;;;15.25;12.13;;;;;;;-145.79;68.33;77782.16;5302540;28;20066;-74
2023/01/18 09:45:55;;;;;;;12.15;10.80;;;;;;;-145.79;68.34;77784.25;5291332;28;20035;-73
2023/01/18 09:48:41;;;;;;;14.10;11.68;;;;;;;-145.79;67.63;77767.31;5282148;28;20151;-74
2023/01/18 09:51:22;;;;;;;12.23;10.95;;;;;;;-145.79;68.13;77763.06;5282813;28;20087;-69
2023/01/18 09:54:23;;;;;;;13.13;10.25;;;;;;;-145.79;68.17;77760.94;5284353;28;20025;-69
2023/01/18 09:57:00;;;;;;;12.75;10.80;;;;;;;-145.79;67.77;77750.34;5282223;28;20124;-70
2023/01/18 09:59:42;;;;;;;14.30;11.48;;;;;;;-145.79;67.64;77741.88;5282878;28;20028;-70
2023/01/18 10:02:22;;;;;;;15.07;10.85;;;;;;;-145.79;67.96;77737.63;5294202;28;20042;-70
2023/01/18 10:04:59;;;;;;;12.98;10.60;;;;;;;-145.79;67.61;77731.28;5292689;28;20048;-71
2023/01/18 10:07:34;;;;;;;14.80;11.20;;;;;;;-145.79;67.99;77729.16;5303277;28;20027;-70
2023/01/18 10:10:12;;;;;;;;;;;;;;;-145.79;67.98;77720.66;5291385;28;20107;-73
2023/01/18 10:12:57;;;;;;;13.48;10.73;;;;;;;-145.79;67.87;77722.78;5303248;28;19964;-73
2023/01/18 10:15:33;;;;;;;15.73;10.40;;;;;;;-145.79;67.77;77716.44;5289170;28;20029;-72
2023/01/18 10:18:08;;;;;;;12.40;10.32;;;;;;;-145.79;67.69;77707.94;5281091;28;20028;-73
2023/01/18 10:20:49;;;;;;;10.75;9.65;;;;;;;-145.79;67.73;77699.47;5282495;28;20036;-71
2023/01/18 10:23:30;;;;;;;12.35;11.05;;;;;;;-145.79;67.82;77697.34;5283197;28;20540;-71
2023/01/18 10:26:11;;;;;;;13.10;10.70;;;;;;;-145.79;67.36;77686.75;5282389;28;20035;-71
2023/01/18 10:29:06;;;;;;;11.45;10.25;;;;;;;-145.79;67.88;77665.56;5288212;28;20016;-71
2023/01/18 10:32:08;;;;;;;12.30;10.15;;;;;;;-145.79;66.93;77663.44;5288923;28;20029;-71
2023/01/18 10:34:47;;;;;;;13.70;11.23;;;;;;;-145.79;67.23;77648.59;5293519;28;20117;-72
2023/01/18 10:37:44;;;;;;;14.07;10.63;;;;;;;-145.79;67.05;77648.59;5282470;28;20031;-71
2023/01/18 10:40:15;;;;;;;13.00;10.55;;;;;;;-145.79;67.26;77631.63;5281286;28;20184;-72
2023/01/18 10:42:58;;;;;;;13.95;10.38;;;;;;;-145.79;67.50;77618.91;5283171;28;20115;-71
2023/01/18 10:45:33;;;;;;;11.68;10.45;;;;;;;-145.79;67.14;77612.56;5280864;28;20069;-72
2023/01/18 10:48:24;;;;;;;12.25;9.23;;;;;;;-145.79;66.82;77601.97;5287918;28;20028;-72
2023/01/18 10:51:06;;;;;;;11.35;9.00;;;;;;;-145.79;66.52;77601.97;5291276;28;20029;-72
2023/01/18 10:53:38;;;;;;;10.88;9.48;;;;;;;-145.79;66.20;77597.72;5285140;28;20032;-70
2023/01/18 10:56:16;;;;;;;12.98;10.35;;;;;;;-145.79;66.36;77597.72;5290519;28;20096;-71
2023/01/18 10:58:56;;;;;;;11.65;9.73;;;;;;;-145.79;66.22;77597.72;5288234;28;20111;-71
2023/01/18 11:01:33;;;;;;;9.90;8.90;;;;;;;-145.79;66.18;77589.25;5285961;28;20080;-71
2023/01/18 11:04:15;;;;;;;10.20;9.20;;;;;;;-145.79;66.21;77585.00;5290218;28;20097;-72
2023/01/18 11:06:55;;;;;;;10.77;9.07;;;;;;;-145.79;65.79;77574.41;5289470;28;20028;-71
2023/01/18 11:09:35;;;;;;;11.02;8.75;;;;;;;-145.79;65.94;77576.53;5292569;28;20111;-72
2023/01/18 11:12:32;;;;;;;10.93;9.40;;;;;;;-145.79;65.81;77568.03;5281123;28;20485;-71
2023/01/18 11:15:12;;;;;;;13.63;10.63;;;;;;;-145.79;66.14;77568.03;5301389;28;20343;-70
2023/01/18 11:17:53;;;;;;;10.70;9.25;;;;;;;-145.79;65.96;77568.03;5302203;28;20031;-71
2023/01/18 11:20:44;;;;;;;11.60;9.18;;;;;;;-145.79;65.73;77568.03;5301338;28;20067;-71
2023/01/18 11:23:19;;;;;;;10.35;9.20;;;;;;;-145.79;65.68;77574.41;5290650;28;20466;-71
2023/01/18 11:25:59;;;;;;;13.82;9.45;;;;;;;-145.79;66.01;77551.09;5293952;28;20036;-71
2023/01/18 11:28:38;;;;;;;11.70;8.88;;;;;;;-145.79;65.50;77557.44;5300746;28;20032;-71
2023/01/18 11:31:13;;;;;;;12.13;8.95;;;;;;;-145.79;65.95;77544.72;5283483;28;20104;-71
2023/01/18 11:33:53;;;;;;;11.33;8.67;;;;;;;-145.79;65.35;77542.59;5281321;28;20029;-71
2023/01/18 11:36:41;;;;;;;10.80;8.88;;;;;;;-145.79;65.71;77525.66;5280850;28;20683;-70
2023/01/18 11:39:38;;;;;;;9.18;8.27;;;;;;;-145.79;65.44;77529.88;5280898;28;20036;-71
2023/01/18 11:42:19;;;;;;;12.48;11.15;;;;;;;-145.79;65.73;77527.78;5275942;28;20040;-74
2023/01/18 11:45:15;;;;;;;12.60;8.70;;;;;;;-145.79;65.94;77508.69;5281469;28;20360;-70
2023/01/18 11:47:55;;;;;;;19.45;14.50;;;;;;;-145.79;64.99;77512.94;5288970;28;20024;-71
2023/01/18 11:50:38;;;;;;;9.40;8.07;;;;;;;-145.79;65.50;77500.22;5301690;28;20020;-70
2023/01/18 11:53:10;;;;;;;10.82;7.90;;;;;;;-145.79;64.06;77495.97;5289583;28;20032;-71
2023/01/18 11:55:54;;;;;;;10.18;8.27;;;;;;;-145.79;64.68;77493.84;5287537;28;20501;-70
2023/01/18 11:58:28;;;;;;;11.25;7.38;;;;;;;-145.79;65.00;77479.03;5288946;28;20107;-71
2023/01/18 12:01:08;;;;;;;14.80;10.48;;;;;;;-145.79;64.33;77487.50;5306209;28;20024;-70
2023/01/18 12:04:01;;;;;;;10.45;8.93;;;;;;;-145.79;64.65;77483.25;5289366;28;20441;-70
2023/01/18 12:06:37;;;;;;;9.30;7.03;;;;;;;-145.79;64.12;77466.31;5305687;28;20060;-71
2023/01/18 12:09:18;;;;;;;9.45;8.43;;;;;;;-145.79;63.92;77462.06;5291110;28;20028;-71
2023/01/18 12:12:16;;;;;;;8.20;7.10;;;;;;;-145.79;63.63;77464.19;5284768;28;20440;-71
2023/01/18 12:15:03;;;;;;;7.95;7.15;;;;;;;-145.79;63.69;77462.06;5286197;28;20029;-70
2023/01/18 12:17:51;;;;;;;9.43;7.40;;;;;;;-145.79;64.22;77455.69;5283157;28;20471;-67
2023/01/18 12:20:31;;;;;;;9.65;7.25;;;;;;;-145.79;63.57;77447.22;5284589;28;20037;-69
2023/01/18 12:23:21;;;;;;;8.52;6.90;;;;;;;-145.79;63.46;77440.88;5283943;28;20115;-68
2023/01/18 12:26:11;;;;;;;8.13;6.97;;;;;;;-145.79;63.42;77436.63;5299958;28;20032;-69
2023/01/18 12:29:02;;;;;;;9.55;7.53;;;;;;;-145.79;63.25;77426.03;5301504;28;20438;-69
2023/01/18 12:31:46;;;;;;;9.30;6.80;;;;;;;-145.79;63.35;77419.66;5297809;28;20421;-70
2023/01/18 12:34:49;;;;;;;9.40;7.18;;;;;;;-145.79;63.04;77417.53;5287864;28;20036;-70
2023/01/18 12:37:34;;;;;;;7.75;6.95;;;;;;;-145.79;63.16;77413.31;5282604;28;20037;-70
2023/01/18 12:40:36;;;;;;;8.73;7.75;;;;;;;-145.79;63.06;77404.84;5298163;28;20386;-71
2023/01/18 12:43:34;;;;;;;10.68;6.75;;;;;;;-145.79;62.48;77394.22;5283873;28;20033;-72
2023/01/18 12:46:09;;;;;;;14.38;11.05;;;;;;;-145.79;62.62;77394.22;5282973;28;20421;-72
2023/01/18 12:49:06;;;;;;;40.40;30.15;;;;;;;-145.79;62.06;77385.75;5298300;28;20028;-72
2023/01/18 12:51:39;;;;;;;7.13;6.20;;;;;;;-145.79;61.72;77390.00;5297114;28;20432;-71
2023/01/18 12:54:25;;;;;;;9.23;7.03;;;;;;;-145.79;60.99;77379.41;5283782;28;20078;-72
2023/01/18 12:56:58;;;;;;;9.27;5.75;;;;;;;-145.79;60.64;77394.22;5287196;28;20077;-72
2023/01/18 12:59:42;;;;;;;6.03;5.28;;;;;;;-145.79;60.44;77377.28;5295415;28;20063;-72
2023/01/18 13:02:36;;;;;;;8.07;5.25;;;;;;;-145.79;60.95;77362.44;5293812;28;20043;-71
2023/01/18 13:05:19;;;;;;;9.00;5.15;;;;;;;-145.79;60.12;77373.03;5288065;28;20044;-71
2023/01/18 13:07:57;;;;;;;6.38;4.78;;;;;;;-145.79;59.86;77360.31;5294460;28;20024;-73
2023/01/18 13:10:29;;;;;;;9.30;5.47;;;;;;;-145.79;59.95;77377.28;5284444;28;20025;-72
2023/01/18 13:13:02;;;;;;;12.20;7.53;;;;;;;-145.79;59.71;77366.69;5298339;28;20120;-73
2023/01/18 13:15:55;;;;;;;8.70;5.53;;;;;;;-145.79;59.49;77356.06;5288336;28;20032;-73
2023/01/18 13:18:32;;;;;;;7.97;6.05;;;;;;;-145.79;59.31;77351.84;5291841;28;20035;-73
2023/01/18 13:21:34;;;;;;;8.15;5.28;;;;;;;-145.79;60.00;77341.25;5283656;28;20406;-71
2023/01/18 13:24:24;;;;;;;7.20;5.22;;;;;;;-145.79;59.11;77345.47;5303661;28;20044;-69
2023/01/18 13:27:10;;;;;;;7.57;5.90;;;;;;;-145.79;58.64;77339.13;5299019;28;20066;-71
2023/01/18 13:29:42;;;;;;;7.18;5.35;;;;;;;-145.79;58.73;77330.66;5288963;28;20032;-71
2023/01/18 13:32:29;;;;;;;5.85;4.68;;;;;;;-145.79;58.25;77341.25;5294937;28;20032;-72
2023/01/18 13:35:14;;;;;;;9.40;5.85;;;;;;;-145.79;58.09;77326.41;5303138;28;20055;-72
2023/01/18 13:37:51;;;;;;;8.32;5.47;;;;;;;-145.79;57.37;77326.41;5282924;28;20417;-72
2023/01/18 13:40:51;;;;;;;6.80;5.60;;;;;;;-145.79;58.09;77303.09;5283286;28;20031;-71
2023/01/18 13:43:50;;;;;;;6.97;4.90;;;;;;;-145.79;56.66;77330.66;5290491;28;20028;-71
2023/01/18 13:46:24;;;;;;;9.27;5.30;;;;;;;-145.79;56.40;77328.53;5274931;28;20037;-71
2023/01/18 13:48:59;;;;;;;7.25;4.82;;;;;;;-145.79;56.27;77330.66;5280821;28;20024;-72
2023/01/18 13:51:39;;;;;;;6.78;4.40;;;;;;;-145.79;56.03;77330.66;5282216;28;20067;-70
2023/01/18 13:54:22;;;;;;;5.00;4.45;;;;;;;-145.79;56.35;77320.03;5282086;28;20028;-71
2023/01/18 13:56:59;;;;;;;5.65;4.07;;;;;;;-145.79;56.25;77292.50;5296176;28;20448;-72
2023/01/18 13:59:34;;;;;;;7.47;5.47;;;;;;;-145.79;55.17;77279.78;5282974;28;20063;-72
2023/01/18 14:02:26;;;;;;;7.47;6.25;;;;;;;-145.79;54.51;77284.00;5291833;28;20481;-71
2023/01/18 14:05:23;;;;;;;6.03;5.07;;;;;;;-145.79;54.54;77260.69;5291895;28;20059;-72
2023/01/18 14:07:57;;;;;;;9.40;6.82;;;;;;;-145.79;54.29;77247.97;5281602;28;20036;-71
2023/01/18 14:10:35;;;;;;;4.77;4.10;;;;;;;-145.79;53.69;77258.56;5281141;28;20033;-70
2023/01/18 14:13:13;;;;;;;8.00;4.18;;;;;;;-145.79;52.76;77258.56;5294714;28;20044;-71
2023/01/18 14:15:52;;;;;;;6.07;4.20;;;;;;;-145.79;52.66;77245.84;5279829;28;20103;-70
2023/01/18 14:18:26;;;;;;;6.55;5.95;;;;;;;-145.79;52.64;77243.75;5283302;28;20414;-70
2023/01/18 14:21:22;;;;;;;5.85;4.95;;;;;;;-145.79;53.24;77226.78;5281645;28;20036;-72
2023/01/18 14:24:27;;;;;;;5.95;4.32;;;;;;;-145.79;52.59;77228.91;5281130;28;20435;-71
2023/01/18 14:26:59;;;;;;;4.72;3.28;;;;;;;-145.79;52.01;77241.63;5282145;28;20036;-72
2023/01/18 14:29:46;;;;;;;4.18;3.78;;;;;;;-145.79;52.07;77258.56;5286612;28;20028;-72
2023/01/18 14:32:22;;;;;;;5.43;3.90;;;;;;;-145.79;52.02;77279.78;5303233;28;20486;-73
2023/01/18 14:34:59;;;;;;;28.60;22.92;;;;;;;-145.79;52.17;77279.78;5290359;28;20369;-72
2023/01/18 14:37:33;;;;;;;5.30;4.28;;;;;;;-145.79;52.15;77284.00;5286512;28;20422;-71
2023/01/18 14:40:26;;;;;;;5.60;3.95;;;;;;;-145.79;52.70;77298.84;5302788;28;20429;-72
2023/01/18 14:43:00;;;;;;;4.45;4.00;;;;;;;-145.79;53.12;77309.44;5302784;28;20024;-72
2023/01/18 14:45:35;;;;;;;5.25;4.25;;;;;;;-145.79;53.36;77330.66;5296361;28;20086;-72
2023/01/18 14:48:18;;;;;;;7.00;4.10;;;;;;;-145.79;53.00;77330.66;5283041;28;20028;-70
2023/01/18 14:50:52;;;;;;;7.25;3.72;;;;;;;-145.79;53.41;77343.38;5283871;28;20281;-71
2023/01/18 14:53:25;;;;;;;7.82;4.18;;;;;;;-145.79;53.98;77356.06;5302370;28;20020;-70
2023/01/18 14:56:32;;;;;;;10.57;4.43;;;;;;;-145.79;54.93;77360.31;5302601;28;20090;-70
2023/01/18 14:59:19;;;;;;;6.65;5.65;;;;;;;-145.79;54.77;77368.78;5266800;28;20036;-70
2023/01/18 15:01:56;;;;;;;5.05;4.32;;;;;;;-145.79;55.00;77381.50;5302352;28;20032;-69
2023/01/18 15:04:31;;;;;;;5.90;4.30;;;;;;;-145.79;55.31;77383.63;5288725;28;20068;-69
2023/01/18 15:07:16;;;;;;;7.07;4.57;;;;;;;-145.79;55.69;77385.75;5280694;28;20101;-70
2023/01/18 15:09:47;;;;;;;5.00;4.50;;;;;;;-145.79;55.94;77394.22;5282755;28;20029;-70
2023/01/18 15:12:24;;;;;;;9.13;6.15;;;;;;;-145.79;55.35;77385.75;5281142;28;20069;-70
2023/01/18 15:15:03;;;;;;;8.52;6.22;;;;;;;-145.79;55.99;77398.47;5294437;28;20387;-67
2023/01/18 15:17:35;;;;;;;11.35;6.88;;;;;;;-145.79;56.69;77411.19;5285826;28;20506;-67
2023/01/18 15:20:13;;;;;;;12.48;8.80;;;;;;;-145.79;57.07;77419.66;5292189;28;20422;-70
2023/01/18 15:22:45;;;;;;;16.25;11.23;;;;;;;-145.79;56.74;77440.88;5301999;28;20031;-70
2023/01/18 15:25:24;;;;;;;11.73;8.15;;;;;;;-145.79;57.44;77434.50;5295219;28;20421;-72
2023/01/18 15:27:58;;;;;;;11.32;7.70;;;;;;;-145.79;57.74;77445.09;5284310;28;20032;-73
2023/01/18 15:30:31;;;;;;;11.37;7.57;;;;;;;-145.79;58.09;77451.47;5284694;28;20040;-73
2023/01/18 15:33:03;;;;;;;9.85;5.85;;;;;;;-145.79;58.41;77447.22;5288118;28;20021;-74
2023/01/18 15:35:35;;;;;;;5.93;5.07;;;;;;;-145.79;58.26;77455.69;5303317;28;20463;-73
2023/01/18 15:38:09;;;;;;;6.93;4.72;;;;;;;-145.79;58.92;77466.31;5292014;28;20340;-73
2023/01/18 15:40:57;;;;;;;7.25;5.53;;;;;;;-145.79;59.03;77464.19;5303833;28;20085;-73
2023/01/18 15:43:32;;;;;;;5.53;4.72;;;;;;;-145.79;59.32;77462.06;5296273;28;20463;-73
2023/01/18 15:46:07;;;;;;;;;;;;;;;-145.79;59.27;77462.06;5285151;28;20028;-73
2023/01/18 15:49:11;;;;;;;5.95;4.72;;;;;;;-145.79;59.87;77474.78;5284483;28;19999;-73
2023/01/18 15:51:55;;;;;;;7.57;6.25;;;;;;;-145.79;59.87;77476.91;5272991;28;20060;-70
2023/01/18 15:54:28;;;;;;;31.83;26.42;;;;;;;-145.79;60.39;77489.63;5288235;28;20028;-71
2023/01/18 15:57:11;;;;;;;11.48;9.80;;;;;;;-145.79;60.33;77500.22;5285705;28;20032;-71
2023/01/18 15:59:42;;;;;;;9.13;6.95;;;;;;;-145.79;60.93;77506.56;5291285;28;20019;-71
2023/01/18 16:02:19;;;;;;;8.35;5.70;;;;;;;-145.79;60.99;77498.09;5292691;28;20087;-71
2023/01/18 16:05:07;;;;;;;7.55;6.28;;;;;;;-145.79;61.21;77498.09;5288770;28;20040;-71
2023/01/18 16:07:42;;;;;;;7.75;5.82;;;;;;;-145.79;61.13;77512.94;5287742;28;20540;-72
2023/01/18 16:10:16;;;;;;;13.20;9.07;;;;;;;-145.79;61.59;77508.69;5284003;28;20032;-73
2023/01/18 16:12:47;;;;;;;20.27;11.75;;;;;;;-145.79;61.85;77504.47;5293584;28;20065;-72
2023/01/18 16:15:27;;;;;;;29.50;17.83;;;;;;;-145.79;62.05;77515.06;5283338;28;20436;-73
2023/01/18 16:18:05;;;;;;;16.55;11.20;;;;;;;-145.79;62.01;77515.06;5287863;28;20039;-73
2023/01/18 16:20:36;;;;;;;24.10;15.73;;;;;;;-145.79;62.05;77527.78;5290506;28;20028;-74
2023/01/18 16:23:18;;;;;;;19.45;13.82;;;;;;;-145.79;62.24;77527.78;5304647;28;20035;-73
2023/01/18 16:25:54;;;;;;;14.13;8.75;;;;;;;-145.79;62.37;77546.84;5304971;28;20036;-73
2023/01/18 16:28:25;;;;;;;13.00;9.35;;;;;;;-145.79;62.48;77542.59;5284805;28;20045;-73
2023/01/18 16:31:01;;;;;;;13.13;9.90;;;;;;;-145.79;62.44;77546.84;5283126;28;20062;-73
2023/01/18 16:33:33;;;;;;;9.45;6.47;;;;;;;-145.79;62.19;77559.56;5292550;28;20475;-73
2023/01/18 16:36:15;;;;;;;7.93;6.85;;;;;;;-145.79;62.92;77568.03;5287382;28;20056;-72
